Fortney, Pennsylvania
Current Conditions -  °F | °C
As of 11:56 PM on Monday 26 Jan 2015 (Local Time) from KCXY Reporting Station
Overcast Overcast  
Wind Chill: 16°   Ceiling: 2300
Heat Index: 26°   Visibility: 10mi
Dew Point: 21°   Wind: 10mph
Humidity: 81%   Direction: 320°NW
Pressure: 29.77"   Gusts: NA
Location:  40.1328°N, 76.8833°W
Report Text: KCXY 270456Z AUTO 32009KT 10SM OVC023 M03/M06 A2977 RMK AO2 SNE15 SLP088 P0000 T10331061 400001044
Loading
Personal Weather Stations






























Interactive Weather Map New forecast layout! Learn more

10-Day Weather Forecast

Advertisements
Track Severe Weather on mobile